createdAt,value
2023-02-26T00:00:32.056Z,89.65
2023-02-26T00:01:32.091Z,89.65
2023-02-26T00:02:32.018Z,89.65
2023-02-26T00:03:32.199Z,89.76
2023-02-26T00:04:31.990Z,89.86
2023-02-26T00:05:31.999Z,89.76
2023-02-26T00:06:32.058Z,89.86
2023-02-26T00:07:32.014Z,89.97
2023-02-26T00:08:32.021Z,90.18
2023-02-26T00:09:32.017Z,90.18
2023-02-26T00:10:31.943Z,90.18
2023-02-26T00:11:31.914Z,90.24
2023-02-26T00:12:31.898Z,90.24
2023-02-26T00:13:31.881Z,90.24
2023-02-26T00:14:31.917Z,90.45
2023-02-26T00:15:31.877Z,90.45
2023-02-26T00:16:31.914Z,90.56
2023-02-26T00:17:31.867Z,90.56
2023-02-26T00:18:31.837Z,90.56
2023-02-26T00:19:31.836Z,90.66
2023-02-26T00:20:31.828Z,90.66
2023-02-26T00:21:31.819Z,90.87
2023-02-26T00:22:31.774Z,90.77
2023-02-26T00:23:31.792Z,90.77
2023-02-26T00:24:31.783Z,90.72
2023-02-26T00:25:31.749Z,90.72
2023-02-26T00:26:32.061Z,90.72
2023-02-26T00:27:31.704Z,90.62
2023-02-26T00:28:31.738Z,90.62
2023-02-26T00:29:31.710Z,90.83
2023-02-26T00:30:31.717Z,90.72
2023-02-26T00:31:31.695Z,90.52
2023-02-26T00:32:32.275Z,90.41
2023-02-26T00:33:31.649Z,90.41
2023-02-26T00:34:31.615Z,90.31
2023-02-26T00:35:31.603Z,90.31
2023-02-26T00:36:31.614Z,90.31
2023-02-26T00:37:31.608Z,90.41
2023-02-26T00:38:31.579Z,90.31
2023-02-26T00:39:31.568Z,90.20
2023-02-26T00:40:31.546Z,89.68
2023-02-26T00:41:31.558Z,89.32
2023-02-26T00:42:31.599Z,89.22
2023-02-26T00:43:31.566Z,89.22
2023-02-26T00:44:31.496Z,89.22
2023-02-26T00:45:31.477Z,89.22
2023-02-26T00:46:31.513Z,89.43
2023-02-26T00:47:31.486Z,89.53
2023-02-26T00:48:31.469Z,89.43
2023-02-26T00:49:31.481Z,89.43
2023-02-26T00:50:31.411Z,89.53
2023-02-26T00:51:31.407Z,89.64
2023-02-26T00:52:31.396Z,89.74
2023-02-26T00:53:31.401Z,89.64
2023-02-26T00:54:31.403Z,89.84
2023-02-26T00:55:31.369Z,90.06
2023-02-26T00:56:31.355Z,90.06
2023-02-26T00:57:31.346Z,90.06
2023-02-26T00:58:31.316Z,90.06
2023-02-26T00:59:31.306Z,90.06
2023-02-26T01:00:31.305Z,89.95
2023-02-26T01:01:31.329Z,90.16
2023-02-26T01:02:31.282Z,90.26
2023-02-26T01:03:31.482Z,90.16
2023-02-26T01:04:31.276Z,90.16
2023-02-26T01:05:31.256Z,90.16
2023-02-26T01:06:31.202Z,90.37
2023-02-26T01:07:31.218Z,90.41
2023-02-26T01:08:31.206Z,90.52
2023-02-26T01:09:31.208Z,90.52
2023-02-26T01:10:31.175Z,90.52
2023-02-26T01:11:31.168Z,90.47
2023-02-26T01:12:31.159Z,90.47
2023-02-26T01:13:31.117Z,90.58
2023-02-26T01:14:31.097Z,90.58
2023-02-26T01:15:31.189Z,90.58
2023-02-26T01:16:31.109Z,90.58
2023-02-26T01:17:31.070Z,90.37
2023-02-26T01:18:31.050Z,90.26
2023-02-26T01:19:31.045Z,90.26
2023-02-26T01:20:31.018Z,90.16
2023-02-26T01:21:31.024Z,90.16
2023-02-26T01:22:31.018Z,90.16
2023-02-26T01:23:30.998Z,90.31
2023-02-26T01:24:30.980Z,90.31
2023-02-26T01:25:30.980Z,90.20
2023-02-26T01:26:30.960Z,90.20
2023-02-26T01:27:30.942Z,90.20
2023-02-26T01:28:30.947Z,90.20
2023-02-26T01:29:30.951Z,90.09
2023-02-26T01:30:30.896Z,90.09
2023-02-26T01:31:31.025Z,90.20
2023-02-26T01:32:30.935Z,90.09
2023-02-26T01:33:30.922Z,90.09
2023-02-26T01:34:30.854Z,90.20
2023-02-26T01:35:30.859Z,90.20
2023-02-26T01:36:30.815Z,90.31
2023-02-26T01:37:30.834Z,90.31
2023-02-26T01:38:30.825Z,90.31
2023-02-26T01:39:30.793Z,90.20
2023-02-26T01:40:30.779Z,90.20
2023-02-26T01:41:30.766Z,90.31
2023-02-26T01:42:30.749Z,90.41
2023-02-26T01:43:31.433Z,90.56
2023-02-26T01:44:30.734Z,90.66
2023-02-26T01:45:30.741Z,90.87
2023-02-26T01:46:30.945Z,90.87
2023-02-26T01:47:30.689Z,90.87
2023-02-26T01:48:30.734Z,90.97
2023-02-26T01:49:30.665Z,90.97
2023-02-26T01:50:30.652Z,90.97
2023-02-26T01:51:30.692Z,91.18
2023-02-26T01:52:30.617Z,91.28
2023-02-26T01:53:30.617Z,91.39
2023-02-26T01:54:30.590Z,91.28
2023-02-26T01:55:30.594Z,91.50
2023-02-26T01:56:30.605Z,91.54
2023-02-26T01:57:30.569Z,91.60
2023-02-26T01:58:30.556Z,91.64
2023-02-26T01:59:30.621Z,91.64
2023-02-26T02:00:30.523Z,91.85
2023-02-26T02:01:30.507Z,91.85
2023-02-26T02:02:30.583Z,91.96
2023-02-26T02:03:30.658Z,92.06
2023-02-26T02:04:30.506Z,92.16
2023-02-26T02:05:30.465Z,91.96
2023-02-26T02:06:30.441Z,92.42
2023-02-26T02:07:30.422Z,92.73
2023-02-26T02:08:30.415Z,92.94
2023-02-26T02:09:30.419Z,93.15
2023-02-26T02:10:30.443Z,93.04
2023-02-26T02:11:30.383Z,92.94
2023-02-26T02:12:30.364Z,92.79
2023-02-26T02:13:30.344Z,92.58
2023-02-26T02:14:30.354Z,92.58
2023-02-26T02:15:30.333Z,92.48
2023-02-26T02:16:30.350Z,92.06
2023-02-26T02:17:30.292Z,92.06
2023-02-26T02:18:30.361Z,92.06
2023-02-26T02:19:30.272Z,92.06
2023-02-26T02:20:30.262Z,91.96
2023-02-26T02:21:30.244Z,91.85
2023-02-26T02:22:30.270Z,91.96
2023-02-26T02:23:30.210Z,91.96
2023-02-26T02:24:30.215Z,91.89
2023-02-26T02:25:30.189Z,91.96
2023-02-26T02:26:30.165Z,91.89
2023-02-26T02:27:30.189Z,91.85
2023-02-26T02:28:30.182Z,91.79
2023-02-26T02:29:30.140Z,91.69
2023-02-26T02:30:30.126Z,91.69
2023-02-26T02:31:30.257Z,91.58
2023-02-26T02:32:30.219Z,91.58
2023-02-26T02:33:30.108Z,91.58
2023-02-26T02:34:30.102Z,91.47
2023-02-26T02:35:30.093Z,91.47
2023-02-26T02:36:30.041Z,91.58
2023-02-26T02:37:30.086Z,91.79
2023-02-26T02:38:30.030Z,91.79
2023-02-26T02:39:30.042Z,91.89
2023-02-26T02:40:29.998Z,92.00
2023-02-26T02:41:29.985Z,92.00
2023-02-26T02:42:29.967Z,92.04
2023-02-26T02:43:29.977Z,92.14
2023-02-26T02:44:30.010Z,92.25
2023-02-26T02:45:29.968Z,92.25
2023-02-26T02:46:30.397Z,92.14
2023-02-26T02:47:29.942Z,92.14
2023-02-26T02:48:29.907Z,92.25
2023-02-26T02:49:29.887Z,92.14
2023-02-26T02:50:29.869Z,92.25
2023-02-26T02:51:29.907Z,92.25
2023-02-26T02:52:29.851Z,92.35
2023-02-26T02:53:29.838Z,92.35
2023-02-26T02:54:29.822Z,92.14
2023-02-26T02:55:29.832Z,92.08
2023-02-26T02:56:29.786Z,92.29
2023-02-26T02:57:29.917Z,92.29
2023-02-26T02:58:29.762Z,92.54
2023-02-26T02:59:29.754Z,92.65
2023-02-26T03:00:29.731Z,92.76
2023-02-26T03:01:29.733Z,93.17
2023-02-26T03:02:29.736Z,93.49
2023-02-26T03:03:29.723Z,93.70
2023-02-26T03:04:29.685Z,93.91
2023-02-26T03:05:29.681Z,94.01
2023-02-26T03:06:29.663Z,94.22
2023-02-26T03:07:29.655Z,94.43
2023-02-26T03:08:29.625Z,94.43
2023-02-26T03:09:29.665Z,94.64
2023-02-26T03:10:29.610Z,94.64
2023-02-26T03:11:29.623Z,94.74
2023-02-26T03:12:29.575Z,94.74
2023-02-26T03:13:29.588Z,94.74
2023-02-26T03:14:29.561Z,94.74
2023-02-26T03:15:29.581Z,94.64
2023-02-26T03:16:29.553Z,94.54
2023-02-26T03:17:29.524Z,94.43
2023-02-26T03:18:29.552Z,94.43
2023-02-26T03:19:29.516Z,94.43
2023-02-26T03:20:29.482Z,94.43
2023-02-26T03:21:29.503Z,94.43
2023-02-26T03:22:29.469Z,94.32
2023-02-26T03:23:29.448Z,94.22
2023-02-26T03:24:29.446Z,94.07
2023-02-26T03:25:29.420Z,94.07
2023-02-26T03:26:29.595Z,93.97
2023-02-26T03:27:29.485Z,93.97
2023-02-26T03:28:29.419Z,93.97
2023-02-26T03:29:29.409Z,93.87
2023-02-26T03:30:29.367Z,93.97
2023-02-26T03:31:29.469Z,94.18
2023-02-26T03:32:29.481Z,94.32
2023-02-26T03:33:29.356Z,94.32
2023-02-26T03:34:29.317Z,94.43
2023-02-26T03:35:29.338Z,94.54
2023-02-26T03:36:29.288Z,94.54
2023-02-26T03:37:29.271Z,94.64
2023-02-26T03:38:29.297Z,94.64
2023-02-26T03:39:29.264Z,94.64
2023-02-26T03:40:29.228Z,94.74
2023-02-26T03:41:29.253Z,94.74
2023-02-26T03:42:29.197Z,94.74
2023-02-26T03:43:29.198Z,94.74
2023-02-26T03:44:29.194Z,94.64
2023-02-26T03:45:29.167Z,94.74
2023-02-26T03:46:29.189Z,94.74
2023-02-26T03:47:29.148Z,94.74
2023-02-26T03:48:29.148Z,94.74
2023-02-26T03:49:31.614Z,94.74
2023-02-26T03:50:29.110Z,94.85
2023-02-26T03:51:29.100Z,94.85
2023-02-26T03:52:29.090Z,94.85
2023-02-26T03:53:29.072Z,94.95
2023-02-26T03:54:29.089Z,94.85
2023-02-26T03:55:29.040Z,94.85
2023-02-26T03:56:29.031Z,94.95
2023-02-26T03:57:29.014Z,94.95
2023-02-26T03:58:29.010Z,94.95
2023-02-26T03:59:29.019Z,95.06
2023-02-26T04:00:28.985Z,95.17
2023-02-26T04:01:28.986Z,95.27
2023-02-26T04:02:28.996Z,95.27
2023-02-26T04:03:28.937Z,95.27
2023-02-26T04:04:28.965Z,95.27
2023-02-26T04:05:28.918Z,95.17
2023-02-26T04:06:28.913Z,95.06
2023-02-26T04:07:28.880Z,94.95
2023-02-26T04:08:28.910Z,94.85
2023-02-26T04:09:28.880Z,94.74
2023-02-26T04:10:28.850Z,94.74
2023-02-26T04:11:28.841Z,94.54
2023-02-26T04:12:28.851Z,94.32
2023-02-26T04:13:28.837Z,94.22
2023-02-26T04:14:28.808Z,94.22
2023-02-26T04:15:28.795Z,94.12
2023-02-26T04:16:28.964Z,93.80
2023-02-26T04:17:30.424Z,93.70
2023-02-26T04:18:28.763Z,93.59
2023-02-26T04:19:38.484Z,93.38
2023-02-26T04:20:28.740Z,93.27
2023-02-26T04:21:28.705Z,93.27
2023-02-26T04:22:28.686Z,93.17
2023-02-26T04:23:28.725Z,93.07
2023-02-26T04:24:28.697Z,92.86
2023-02-26T04:25:28.655Z,92.76
2023-02-26T04:26:28.666Z,92.65
2023-02-26T04:27:28.718Z,92.54
2023-02-26T04:28:28.633Z,92.44
2023-02-26T04:29:28.626Z,92.33
2023-02-26T04:30:28.639Z,92.23
2023-02-26T04:31:29.781Z,91.91
2023-02-26T04:32:28.595Z,91.81
2023-02-26T04:33:28.552Z,91.60
2023-02-26T04:34:28.554Z,91.39
2023-02-26T04:35:28.595Z,91.35
2023-02-26T04:36:28.501Z,90.97
2023-02-26T04:37:28.508Z,90.83
2023-02-26T04:38:36.102Z,90.76
2023-02-26T04:39:28.506Z,90.61
2023-02-26T04:40:28.577Z,90.51
2023-02-26T04:41:28.524Z,90.55
2023-02-26T04:42:28.457Z,90.66
2023-02-26T04:43:28.479Z,90.66
2023-02-26T04:44:28.397Z,90.76
2023-02-26T04:45:28.401Z,90.76
2023-02-26T04:46:28.764Z,90.76
2023-02-26T04:47:37.077Z,90.66
2023-02-26T04:48:28.389Z,90.55
2023-02-26T04:49:35.893Z,90.55
2023-02-26T04:50:28.313Z,90.34
2023-02-26T04:51:28.303Z,90.34
2023-02-26T04:52:28.408Z,90.23
2023-02-26T04:53:28.323Z,89.92
2023-02-26T04:54:28.302Z,89.72
2023-02-26T04:55:28.257Z,89.61
2023-02-26T04:56:28.389Z,89.61
2023-02-26T04:57:28.247Z,89.61
2023-02-26T04:58:28.283Z,89.50
2023-02-26T04:59:28.259Z,89.50
2023-02-26T05:00:28.298Z,89.50
2023-02-26T05:01:28.269Z,89.61
2023-02-26T05:02:28.183Z,89.72
2023-02-26T05:03:28.162Z,89.50
2023-02-26T05:04:28.262Z,89.40
2023-02-26T05:05:28.196Z,89.29
2023-02-26T05:06:28.135Z,89.29
2023-02-26T05:07:28.144Z,89.29
2023-02-26T05:08:28.123Z,89.40
2023-02-26T05:09:28.105Z,89.29
2023-02-26T05:10:28.092Z,89.19
2023-02-26T05:11:28.110Z,89.19
2023-02-26T05:12:28.146Z,89.09
2023-02-26T05:13:28.037Z,89.19
2023-02-26T05:14:28.027Z,89.19
2023-02-26T05:15:28.038Z,89.09
2023-02-26T05:16:28.389Z,89.19
2023-02-26T05:17:28.074Z,89.34
2023-02-26T05:18:28.019Z,89.29
2023-02-26T05:19:27.981Z,89.19
2023-02-26T05:20:28.155Z,89.23
2023-02-26T05:21:28.000Z,88.46
2023-02-26T05:22:28.013Z,88.35
2023-02-26T05:23:27.918Z,88.56
2023-02-26T05:24:27.944Z,88.46
2023-02-26T05:25:27.950Z,88.56
2023-02-26T05:26:28.014Z,88.46
2023-02-26T05:27:27.865Z,88.35
2023-02-26T05:28:27.910Z,88.04
2023-02-26T05:29:27.846Z,88.04
2023-02-26T05:30:27.833Z,88.14
2023-02-26T05:31:27.835Z,88.24
2023-02-26T05:32:27.854Z,88.24
2023-02-26T05:33:27.826Z,88.14
2023-02-26T05:34:27.793Z,88.04
2023-02-26T05:35:27.742Z,88.04
2023-02-26T05:36:27.857Z,87.93
2023-02-26T05:37:27.748Z,87.83
2023-02-26T05:38:27.745Z,87.83
2023-02-26T05:39:27.698Z,87.83
2023-02-26T05:40:27.740Z,87.83
2023-02-26T05:41:27.681Z,87.87
2023-02-26T05:42:27.683Z,87.93
2023-02-26T05:43:27.677Z,87.72
2023-02-26T05:44:27.675Z,87.83
2023-02-26T05:45:27.632Z,87.83
2023-02-26T05:46:28.071Z,87.83
2023-02-26T05:47:27.602Z,87.87
2023-02-26T05:48:27.601Z,87.72
2023-02-26T05:49:27.613Z,87.41
2023-02-26T05:50:27.568Z,87.30
2023-02-26T05:51:27.584Z,87.30
2023-02-26T05:52:27.566Z,87.41
2023-02-26T05:53:27.584Z,87.30
2023-02-26T05:54:27.518Z,87.41
2023-02-26T05:55:27.509Z,87.30
2023-02-26T05:56:27.615Z,87.41
2023-02-26T05:57:27.462Z,87.41
2023-02-26T05:58:27.531Z,87.30
2023-02-26T05:59:27.454Z,87.20
2023-02-26T06:00:27.427Z,87.34
2023-02-26T06:01:27.409Z,87.45
2023-02-26T06:02:27.475Z,87.55
2023-02-26T06:03:27.399Z,87.55
2023-02-26T06:04:27.373Z,87.45
2023-02-26T06:05:27.355Z,87.66
2023-02-26T06:06:27.552Z,87.66
2023-02-26T06:07:27.364Z,87.87
2023-02-26T06:08:27.337Z,87.76
2023-02-26T06:09:27.314Z,87.66
2023-02-26T06:10:27.305Z,87.66
2023-02-26T06:11:27.415Z,87.55
2023-02-26T06:12:27.288Z,87.76
2023-02-26T06:13:27.283Z,87.66
2023-02-26T06:14:27.250Z,87.45
2023-02-26T06:15:27.225Z,87.34
2023-02-26T06:16:27.776Z,87.13
2023-02-26T06:17:27.203Z,87.13
2023-02-26T06:18:27.263Z,87.24
2023-02-26T06:19:27.196Z,87.34
2023-02-26T06:20:27.198Z,87.34
2023-02-26T06:21:27.168Z,87.45
2023-02-26T06:22:27.173Z,87.55
2023-02-26T06:23:27.126Z,87.45
2023-02-26T06:24:27.116Z,87.45
2023-02-26T06:25:27.119Z,87.66
2023-02-26T06:26:27.381Z,87.45
2023-02-26T06:27:27.139Z,87.45
2023-02-26T06:28:27.099Z,87.66
2023-02-26T06:29:27.056Z,87.66
2023-02-26T06:30:27.130Z,87.66
2023-02-26T06:31:27.080Z,87.66
2023-02-26T06:32:29.008Z,87.76
2023-02-26T06:33:27.014Z,87.76
2023-02-26T06:34:27.036Z,87.76
2023-02-26T06:35:26.990Z,87.87
2023-02-26T06:36:27.325Z,87.66
2023-02-26T06:37:26.967Z,87.66
2023-02-26T06:38:26.960Z,87.76
2023-02-26T06:39:26.936Z,87.76
2023-02-26T06:40:26.975Z,87.66
2023-02-26T06:41:27.021Z,87.66
2023-02-26T06:42:26.925Z,87.55
2023-02-26T06:43:26.888Z,87.66
2023-02-26T06:44:26.871Z,87.76
2023-02-26T06:45:26.879Z,87.76
2023-02-26T06:46:27.099Z,87.66
2023-02-26T06:47:26.834Z,87.55
2023-02-26T06:48:26.926Z,87.45
2023-02-26T06:49:26.821Z,87.20
2023-02-26T06:50:26.842Z,86.99
2023-02-26T06:51:26.873Z,86.99
2023-02-26T06:52:27.001Z,86.57
2023-02-26T06:53:26.778Z,86.36
2023-02-26T06:54:26.761Z,86.68
2023-02-26T06:55:26.754Z,86.68
2023-02-26T06:56:27.012Z,86.57
2023-02-26T06:57:26.758Z,86.25
2023-02-26T06:58:26.704Z,86.05
2023-02-26T06:59:26.682Z,86.22
2023-02-26T07:00:26.670Z,86.15
2023-02-26T07:01:26.760Z,86.00
2023-02-26T07:02:26.701Z,85.90
2023-02-26T07:03:26.660Z,85.80
2023-02-26T07:04:26.630Z,85.90
2023-02-26T07:05:26.597Z,85.80
2023-02-26T07:06:28.077Z,85.65
2023-02-26T07:07:26.561Z,85.55
2023-02-26T07:08:26.574Z,85.24
2023-02-26T07:09:26.543Z,84.78
2023-02-26T07:10:26.545Z,84.25
2023-02-26T07:11:26.529Z,83.69
2023-02-26T07:12:26.522Z,82.92
2023-02-26T07:13:26.483Z,81.73
2023-02-26T07:14:26.499Z,80.96
2023-02-26T07:15:26.469Z,80.09
2023-02-26T07:16:26.777Z,79.43
2023-02-26T07:17:26.452Z,79.01
2023-02-26T07:18:26.449Z,78.80
2023-02-26T07:19:26.450Z,78.25
2023-02-26T07:20:26.408Z,77.76
2023-02-26T07:21:26.397Z,78.18
2023-02-26T07:22:26.428Z,78.39
2023-02-26T07:23:26.385Z,77.94
2023-02-26T07:24:26.346Z,77.37
2023-02-26T07:25:26.357Z,76.86
2023-02-26T07:26:26.613Z,76.43
2023-02-26T07:27:26.322Z,76.89
2023-02-26T07:28:26.348Z,77.14
2023-02-26T07:29:26.321Z,78.32
2023-02-26T07:30:26.327Z,79.36
2023-02-26T07:31:26.398Z,79.68
2023-02-26T07:32:26.274Z,79.47
2023-02-26T07:33:26.228Z,78.94
2023-02-26T07:34:26.247Z,78.84
2023-02-26T07:35:26.325Z,78.84
2023-02-26T07:36:26.533Z,79.26
2023-02-26T07:37:26.207Z,79.36
2023-02-26T07:38:26.170Z,79.26
2023-02-26T07:39:26.180Z,79.57
2023-02-26T07:40:26.161Z,79.61
2023-02-26T07:41:26.150Z,80.06
2023-02-26T07:42:26.125Z,80.48
2023-02-26T07:43:26.166Z,80.58
2023-02-26T07:44:26.111Z,80.44
2023-02-26T07:45:26.094Z,79.68
2023-02-26T07:46:26.354Z,78.91
2023-02-26T07:47:26.064Z,78.04
2023-02-26T07:48:26.031Z,77.17
2023-02-26T07:49:26.042Z,76.75
2023-02-26T07:50:26.049Z,76.54
2023-02-26T07:51:26.255Z,77.27
2023-02-26T07:52:25.995Z,77.03
2023-02-26T07:53:25.977Z,76.33
2023-02-26T07:54:25.969Z,76.61
2023-02-26T07:55:25.975Z,76.30
2023-02-26T07:56:26.196Z,76.65
2023-02-26T07:57:25.965Z,76.86
2023-02-26T07:58:25.910Z,76.82
2023-02-26T07:59:25.890Z,75.88
2023-02-26T08:00:25.957Z,75.36
2023-02-26T08:01:25.892Z,75.36
2023-02-26T08:02:25.857Z,75.05
2023-02-26T08:03:25.851Z,74.95
2023-02-26T08:04:25.894Z,75.36
2023-02-26T08:05:25.818Z,75.57
2023-02-26T08:06:26.176Z,75.98
2023-02-26T08:07:25.794Z,75.88
2023-02-26T08:08:25.802Z,76.23
2023-02-26T08:09:25.775Z,76.23
2023-02-26T08:10:25.779Z,76.57
2023-02-26T08:11:25.742Z,77.10
2023-02-26T08:12:25.732Z,77.06
2023-02-26T08:13:25.730Z,76.54
2023-02-26T08:14:25.726Z,76.43
2023-02-26T08:15:25.700Z,76.65
2023-02-26T08:16:25.963Z,76.54
2023-02-26T08:17:25.675Z,76.65
2023-02-26T08:18:25.705Z,76.23
2023-02-26T08:19:25.635Z,75.78
2023-02-26T08:20:25.792Z,75.98
2023-02-26T08:21:25.622Z,75.78
2023-02-26T08:22:25.676Z,76.02
2023-02-26T08:23:25.613Z,76.79
2023-02-26T08:24:25.592Z,77.00
2023-02-26T08:25:25.631Z,77.00
2023-02-26T08:26:25.892Z,76.96
2023-02-26T08:27:25.533Z,76.51
2023-02-26T08:28:25.538Z,75.64
2023-02-26T08:29:25.550Z,74.70
2023-02-26T08:30:25.515Z,74.42
2023-02-26T08:31:25.879Z,74.52
2023-02-26T08:32:25.502Z,74.80
2023-02-26T08:33:25.785Z,74.29
2023-02-26T08:34:25.465Z,74.32
2023-02-26T08:35:25.431Z,73.66
2023-02-26T08:36:25.788Z,72.20
2023-02-26T08:37:25.397Z,71.89
2023-02-26T08:38:25.392Z,71.97
2023-02-26T08:39:25.403Z,71.97
2023-02-26T08:40:25.363Z,71.00
2023-02-26T08:41:25.621Z,70.54
2023-02-26T08:42:25.336Z,69.92
2023-02-26T08:43:25.329Z,70.34
2023-02-26T08:44:25.312Z,69.61
2023-02-26T08:45:25.306Z,69.20
2023-02-26T08:46:25.617Z,69.20
2023-02-26T08:47:29.031Z,69.30
2023-02-26T08:48:25.271Z,68.78
2023-02-26T08:49:25.239Z,69.17
2023-02-26T08:50:25.243Z,68.37
2023-02-26T08:51:25.568Z,68.78
2023-02-26T08:52:25.239Z,69.79
2023-02-26T08:53:25.246Z,68.30
2023-02-26T08:54:25.204Z,67.34
2023-02-26T08:55:25.165Z,66.72
2023-02-26T08:56:25.508Z,66.30
2023-02-26T08:57:25.138Z,66.75
2023-02-26T08:58:25.151Z,66.44
2023-02-26T08:59:25.151Z,66.61
2023-02-26T09:00:25.108Z,66.88
2023-02-26T09:01:25.596Z,67.22
2023-02-26T09:02:25.093Z,68.29
2023-02-26T09:03:25.122Z,69.12
2023-02-26T09:04:25.045Z,69.92
2023-02-26T09:05:25.032Z,71.37
2023-02-26T09:06:25.416Z,71.20
2023-02-26T09:07:25.034Z,71.61
2023-02-26T09:08:25.025Z,71.69
2023-02-26T09:09:25.007Z,70.95
2023-02-26T09:10:24.967Z,70.30
2023-02-26T09:11:25.267Z,69.33
2023-02-26T09:12:24.986Z,69.61
2023-02-26T09:13:24.971Z,69.17
2023-02-26T09:14:25.034Z,68.41
2023-02-26T09:15:24.916Z,67.47
2023-02-26T09:16:25.253Z,67.89
2023-02-26T09:17:24.908Z,67.43
2023-02-26T09:18:24.925Z,67.80
2023-02-26T09:19:24.878Z,68.43
2023-02-26T09:20:24.849Z,68.19
2023-02-26T09:21:24.891Z,68.60
2023-02-26T09:22:24.816Z,68.29
2023-02-26T09:23:24.820Z,67.88
2023-02-26T09:24:24.863Z,67.12
2023-02-26T09:25:24.790Z,67.43
2023-02-26T09:26:25.009Z,67.50
2023-02-26T09:27:24.753Z,65.29
2023-02-26T09:28:24.789Z,65.08
2023-02-26T09:29:24.755Z,66.02
2023-02-26T09:30:24.762Z,64.77
2023-02-26T09:31:24.768Z,64.87
2023-02-26T09:32:24.770Z,64.67
2023-02-26T09:33:24.708Z,64.87
2023-02-26T09:34:24.663Z,65.47
2023-02-26T09:35:24.703Z,65.37
2023-02-26T09:36:25.153Z,64.75
2023-02-26T09:37:24.692Z,64.36
2023-02-26T09:38:24.612Z,64.80
2023-02-26T09:39:24.662Z,65.50
2023-02-26T09:40:24.608Z,65.01
2023-02-26T09:41:24.675Z,65.08
2023-02-26T09:42:24.557Z,64.67
2023-02-26T09:43:24.553Z,65.50
2023-02-26T09:44:24.536Z,65.34
2023-02-26T09:45:24.511Z,64.17
2023-02-26T09:46:24.852Z,63.26
2023-02-26T09:47:24.520Z,64.46
2023-02-26T09:48:24.495Z,65.14
2023-02-26T09:49:24.472Z,66.39
2023-02-26T09:50:24.539Z,66.74
2023-02-26T09:51:24.449Z,67.54
2023-02-26T09:52:24.484Z,67.12
2023-02-26T09:53:24.408Z,67.09
2023-02-26T09:54:24.394Z,66.54
2023-02-26T09:55:24.472Z,65.58
2023-02-26T09:56:24.596Z,64.46
2023-02-26T09:57:24.370Z,63.81
2023-02-26T09:58:24.369Z,64.59
2023-02-26T09:59:24.325Z,64.80
2023-02-26T10:00:24.313Z,65.25
2023-02-26T10:01:24.323Z,65.66
2023-02-26T10:02:24.314Z,66.28
2023-02-26T10:03:24.302Z,66.36
2023-02-26T10:04:24.337Z,66.22
2023-02-26T10:05:24.265Z,65.70
2023-02-26T10:06:24.727Z,63.73
2023-02-26T10:07:24.294Z,63.76
2023-02-26T10:08:24.251Z,62.76
2023-02-26T10:09:24.205Z,62.96
2023-02-26T10:10:24.188Z,63.24
2023-02-26T10:11:24.219Z,63.60
2023-02-26T10:12:24.170Z,61.88
2023-02-26T10:13:24.181Z,58.62
2023-02-26T10:14:24.150Z,56.83
2023-02-26T10:15:24.175Z,56.52
2023-02-26T10:16:24.192Z,56.00
2023-02-26T10:17:24.098Z,56.26
2023-02-26T10:18:24.177Z,55.54
2023-02-26T10:19:24.138Z,55.98
2023-02-26T10:20:24.058Z,56.18
2023-02-26T10:21:24.047Z,56.08
2023-02-26T10:22:24.128Z,55.59
2023-02-26T10:23:24.040Z,56.91
2023-02-26T10:24:24.009Z,56.68
2023-02-26T10:25:24.053Z,56.26
2023-02-26T10:26:24.576Z,56.57
2023-02-26T10:27:24.019Z,55.95
2023-02-26T10:28:23.976Z,56.00
2023-02-26T10:29:23.942Z,56.44
2023-02-26T10:30:23.953Z,56.62
2023-02-26T10:31:24.279Z,55.77
2023-02-26T10:32:24.017Z,55.41
2023-02-26T10:33:24.025Z,55.28
2023-02-26T10:34:23.988Z,54.50
2023-02-26T10:35:23.870Z,54.84
2023-02-26T10:36:32.551Z,57.53
2023-02-26T10:37:31.381Z,57.68
2023-02-26T10:38:32.342Z,57.81
2023-02-26T10:39:33.556Z,56.83
2023-02-26T10:40:32.737Z,57.66
2023-02-26T10:41:23.952Z,57.24
2023-02-26T10:42:23.787Z,56.81
2023-02-26T10:43:31.276Z,55.15
2023-02-26T10:44:31.255Z,55.15
2023-02-26T10:45:23.766Z,56.49
2023-02-26T10:46:23.734Z,56.00
2023-02-26T10:47:23.704Z,56.18
2023-02-26T10:48:23.706Z,55.95
2023-02-26T10:49:23.692Z,53.65
2023-02-26T10:50:23.664Z,54.32
2023-02-26T10:51:23.808Z,55.49
2023-02-26T10:52:23.636Z,56.13
2023-02-26T10:53:23.649Z,57.56
2023-02-26T10:54:23.696Z,57.01
2023-02-26T10:55:23.607Z,57.14
2023-02-26T10:56:23.615Z,57.87
2023-02-26T10:57:23.577Z,57.79
2023-02-26T10:58:23.620Z,57.87
2023-02-26T10:59:23.575Z,56.62
2023-02-26T11:00:23.595Z,56.83
2023-02-26T11:01:23.913Z,57.66
2023-02-26T11:02:23.530Z,57.04
2023-02-26T11:03:23.508Z,57.35
2023-02-26T11:04:23.506Z,56.62
2023-02-26T11:05:23.475Z,57.68
2023-02-26T11:06:23.656Z,58.20
2023-02-26T11:07:23.444Z,57.87
2023-02-26T11:08:33.687Z,55.98
2023-02-26T11:09:23.462Z,53.39
2023-02-26T11:10:23.411Z,53.67
2023-02-26T11:11:23.800Z,53.13
2023-02-26T11:12:23.380Z,53.91
2023-02-26T11:13:23.404Z,53.67
2023-02-26T11:14:26.207Z,54.96
2023-02-26T11:15:23.378Z,56.21
2023-02-26T11:16:23.376Z,57.04
2023-02-26T11:17:23.323Z,57.92
2023-02-26T11:18:23.339Z,55.30
2023-02-26T11:19:23.299Z,54.22
2023-02-26T11:20:24.874Z,53.55
2023-02-26T11:21:23.586Z,51.28
2023-02-26T11:22:23.262Z,51.37
2023-02-26T11:23:23.267Z,52.12
2023-02-26T11:24:23.302Z,53.91
2023-02-26T11:25:23.253Z,54.86
2023-02-26T11:26:23.225Z,55.18
2023-02-26T11:27:23.224Z,55.77
2023-02-26T11:28:23.200Z,55.82
2023-02-26T11:29:23.207Z,53.73
2023-02-26T11:30:23.317Z,52.57
2023-02-26T11:31:23.359Z,50.13
2023-02-26T11:32:23.363Z,50.20
2023-02-26T11:33:23.157Z,49.31
2023-02-26T11:34:31.869Z,50.51
2023-02-26T11:35:23.105Z,52.61
2023-02-26T11:36:23.136Z,51.94
2023-02-26T11:37:23.145Z,51.73
2023-02-26T11:38:23.088Z,50.93
2023-02-26T11:39:23.075Z,51.09
2023-02-26T11:40:23.046Z,50.45
2023-02-26T11:41:23.261Z,50.89
2023-02-26T11:42:23.017Z,51.19
2023-02-26T11:43:23.045Z,51.89
2023-02-26T11:44:22.982Z,52.20
2023-02-26T11:45:23.017Z,51.07
2023-02-26T11:46:23.024Z,52.25
2023-02-26T11:47:22.989Z,53.41
2023-02-26T11:48:22.938Z,53.54
2023-02-26T11:49:22.966Z,54.47
2023-02-26T11:50:22.970Z,54.68
2023-02-26T11:51:22.960Z,54.06
2023-02-26T11:52:22.972Z,54.37
2023-02-26T11:53:22.875Z,53.85
2023-02-26T11:54:22.857Z,53.44
2023-02-26T11:55:22.872Z,53.39
2023-02-26T11:56:22.847Z,51.89
2023-02-26T11:57:22.853Z,52.51
2023-02-26T11:58:22.825Z,51.61
2023-02-26T11:59:22.855Z,51.01
2023-02-26T12:00:22.780Z,50.95
2023-02-26T12:01:22.831Z,52.01
2023-02-26T12:02:22.810Z,52.59
2023-02-26T12:03:22.781Z,52.80
2023-02-26T12:04:22.732Z,51.45
2023-02-26T12:05:22.715Z,51.26
2023-02-26T12:06:22.716Z,52.28
2023-02-26T12:07:22.725Z,51.24
2023-02-26T12:08:22.673Z,52.07
2023-02-26T12:09:22.686Z,53.62
2023-02-26T12:10:22.676Z,52.72
2023-02-26T12:11:22.630Z,53.62
2023-02-26T12:12:22.666Z,52.80
2023-02-26T12:13:22.656Z,52.28
2023-02-26T12:14:22.622Z,52.67
2023-02-26T12:15:22.604Z,51.84
2023-02-26T12:16:22.633Z,52.36
2023-02-26T12:17:22.582Z,52.23
2023-02-26T12:18:22.554Z,52.54
2023-02-26T12:19:22.577Z,51.92
2023-02-26T12:20:22.554Z,51.71
2023-02-26T12:21:22.564Z,51.50
2023-02-26T12:22:22.517Z,50.89
2023-02-26T12:23:22.499Z,51.50
2023-02-26T12:24:22.505Z,52.23
2023-02-26T12:25:22.494Z,52.77
2023-02-26T12:26:22.485Z,52.98
2023-02-26T12:27:22.445Z,53.70
2023-02-26T12:28:22.462Z,52.36
2023-02-26T12:29:22.418Z,50.90
2023-02-26T12:30:22.431Z,50.90
2023-02-26T12:31:22.478Z,51.03
2023-02-26T12:32:22.532Z,52.48
2023-02-26T12:33:22.509Z,52.25
2023-02-26T12:34:22.363Z,51.21
2023-02-26T12:35:22.507Z,50.08
2023-02-26T12:36:22.369Z,50.62
2023-02-26T12:37:22.328Z,51.14
2023-02-26T12:38:22.319Z,52.77
2023-02-26T12:39:22.313Z,50.89
2023-02-26T12:40:22.316Z,49.98
2023-02-26T12:41:22.278Z,50.80
2023-02-26T12:42:22.249Z,51.06
2023-02-26T12:43:22.248Z,51.55
2023-02-26T12:44:22.243Z,51.55
2023-02-26T12:45:34.497Z,51.11
2023-02-26T12:46:22.292Z,51.84
2023-02-26T12:47:22.241Z,50.68
2023-02-26T12:48:22.414Z,49.90
2023-02-26T12:49:22.162Z,50.72
2023-02-26T12:50:22.158Z,51.65
2023-02-26T12:51:22.194Z,50.74
2023-02-26T12:52:22.150Z,51.06